createdAt,value
2018-10-05T00:00:41.361Z,101143.52
2018-10-05T00:03:09.461Z,101139.92
2018-10-05T00:05:37.541Z,101143.17
2018-10-05T00:08:05.867Z,101140.08
2018-10-05T00:10:33.946Z,101142.88
2018-10-05T00:13:02.007Z,101141.63
2018-10-05T00:15:30.129Z,101136.77
2018-10-05T00:17:58.194Z,101136.80
2018-10-05T00:20:26.294Z,101134.21
2018-10-05T00:22:54.514Z,101135.65
2018-10-05T00:25:22.585Z,101130.39
2018-10-05T00:27:50.647Z,101121.58
2018-10-05T00:30:18.963Z,101124.83
2018-10-05T00:32:47.038Z,101128.08
2018-10-05T00:35:15.106Z,101115.97
2018-10-05T00:37:43.167Z,101116.94
2018-10-05T00:40:11.240Z,101118.72
2018-10-05T00:42:39.359Z,101114.42
2018-10-05T00:45:07.386Z,101109.16
2018-10-05T00:47:35.453Z,101119.17
2018-10-05T00:50:03.679Z,101121.99
2018-10-05T00:52:31.741Z,101117.94
2018-10-05T00:54:59.831Z,101117.08
2018-10-05T00:57:27.907Z,101116.62
2018-10-05T00:59:55.967Z,101113.02
2018-10-05T01:02:24.062Z,101113.52
2018-10-05T01:04:52.122Z,101116.69
2018-10-05T01:07:20.216Z,101113.98
2018-10-05T01:09:48.297Z,101110.39
2018-10-05T01:12:17.120Z,101114.45
2018-10-05T01:14:45.230Z,101114.91
2018-10-05T01:17:13.314Z,101120.79
2018-10-05T01:19:41.386Z,101114.95
2018-10-05T01:22:09.467Z,101109.12
2018-10-05T01:24:37.569Z,101110.97
2018-10-05T01:27:05.654Z,101109.19
2018-10-05T01:29:33.731Z,101109.73
2018-10-05T01:32:01.814Z,101108.45
2018-10-05T01:34:29.911Z,101109.84
2018-10-05T01:36:58.006Z,101098.70
2018-10-05T01:39:26.103Z,101098.28
2018-10-05T01:41:54.206Z,101104.30
2018-10-05T01:44:22.290Z,101098.08
2018-10-05T01:46:50.368Z,101101.34
2018-10-05T01:49:18.450Z,101106.83
2018-10-05T01:51:46.512Z,101102.81
2018-10-05T01:54:14.591Z,101103.77
2018-10-05T01:56:42.661Z,101100.74
2018-10-05T01:59:10.743Z,101096.27
2018-10-05T02:01:38.814Z,101094.48
2018-10-05T02:04:06.934Z,101094.52
2018-10-05T02:06:35.086Z,101094.59
2018-10-05T02:09:03.586Z,101091.39
2018-10-05T02:11:31.644Z,101095.09
2018-10-05T02:13:59.729Z,101080.72
2018-10-05T02:16:27.791Z,101077.16
2018-10-05T02:18:55.860Z,101072.22
2018-10-05T02:21:23.919Z,101068.70
2018-10-05T02:23:51.985Z,101070.09
2018-10-05T02:26:20.040Z,101067.91
2018-10-05T02:28:48.114Z,101069.27
2018-10-05T02:31:16.174Z,101061.19
2018-10-05T02:33:44.315Z,101059.84
2018-10-05T02:36:12.376Z,101054.08
2018-10-05T02:38:40.433Z,101055.04
2018-10-05T02:41:08.504Z,101049.67
2018-10-05T02:43:36.558Z,101053.86
2018-10-05T02:46:04.626Z,101051.63
2018-10-05T02:48:32.687Z,101044.41
2018-10-05T02:51:00.761Z,101042.16
2018-10-05T02:53:28.817Z,101035.12
2018-10-05T02:55:56.949Z,101037.39
2018-10-05T02:58:25.002Z,101038.32
2018-10-05T03:01:04.582Z,101037.89
2018-10-05T03:03:32.636Z,101036.58
2018-10-05T03:06:00.728Z,101031.80
2018-10-05T03:08:28.891Z,101026.87
2018-10-05T03:10:57.070Z,101018.23
2018-10-05T03:13:25.142Z,101019.97
2018-10-05T03:15:53.218Z,101009.27
2018-10-05T03:18:21.285Z,101019.58
2018-10-05T03:20:49.361Z,101013.75
2018-10-05T03:23:17.424Z,100987.05
2018-10-05T03:25:45.653Z,100982.61
2018-10-05T03:28:13.564Z,101013.22
2018-10-05T03:30:41.637Z,101006.54
2018-10-05T03:33:09.708Z,101003.37
2018-10-05T03:35:37.778Z,101007.82
2018-10-05T03:38:06.128Z,101003.27
2018-10-05T03:40:34.248Z,101008.60
2018-10-05T03:43:02.311Z,101010.27
2018-10-05T03:45:30.392Z,101012.55
2018-10-05T03:47:58.455Z,101019.16
2018-10-05T03:50:26.525Z,101015.86
2018-10-05T03:52:54.589Z,101010.37
2018-10-05T03:55:22.653Z,101019.73
2018-10-05T03:57:50.752Z,101008.10
2018-10-05T04:00:18.779Z,101008.67
2018-10-05T04:02:46.901Z,101005.97
2018-10-05T04:05:14.983Z,101010.95
2018-10-05T04:07:43.154Z,101009.09
2018-10-05T04:10:11.226Z,101011.95
2018-10-05T04:12:39.305Z,101015.53
2018-10-05T04:15:07.627Z,101014.58
2018-10-05T04:17:35.713Z,101012.16
2018-10-05T04:20:03.801Z,101014.18
2018-10-05T04:22:31.909Z,101011.55
2018-10-05T04:25:00.019Z,101011.38
2018-10-05T04:27:28.106Z,101011.38
2018-10-05T04:29:56.770Z,101008.49
2018-10-05T04:32:25.060Z,101009.95
2018-10-05T04:34:53.133Z,101009.45
2018-10-05T04:37:21.235Z,101005.97
2018-10-05T04:39:49.319Z,101004.79
2018-10-05T04:42:17.395Z,101006.82
2018-10-05T04:44:45.477Z,101008.03
2018-10-05T04:47:13.753Z,101009.27
2018-10-05T04:49:41.848Z,101012.97
2018-10-05T04:52:10.058Z,101006.36
2018-10-05T04:54:38.137Z,101005.72
2018-10-05T04:57:06.258Z,100995.12
2018-10-05T04:59:34.367Z,100993.84
2018-10-05T05:02:02.465Z,100990.19
2018-10-05T05:04:30.593Z,100989.27
2018-10-05T05:06:58.682Z,100984.25
2018-10-05T05:09:26.772Z,100987.34
2018-10-05T05:11:54.870Z,100994.41
2018-10-05T05:14:22.950Z,100984.28
2018-10-05T05:16:51.022Z,100984.11
2018-10-05T05:19:19.209Z,100980.66
2018-10-05T05:21:47.293Z,100979.06
2018-10-05T05:24:15.379Z,100977.50
2018-10-05T05:26:43.494Z,100975.86
2018-10-05T05:29:11.582Z,100967.65
2018-10-05T05:31:39.654Z,100975.83
2018-10-05T05:34:07.860Z,100977.39
2018-10-05T05:36:35.930Z,100982.11
2018-10-05T05:39:04.752Z,100979.20
2018-10-05T05:41:32.835Z,100981.41
2018-10-05T05:44:00.906Z,100986.52
2018-10-05T05:46:29.029Z,100981.83
2018-10-05T05:48:57.098Z,100987.16
2018-10-05T05:51:25.281Z,100983.01
2018-10-05T05:53:53.375Z,100977.28
2018-10-05T05:56:21.454Z,100980.73
2018-10-05T05:58:49.531Z,100977.61
2018-10-05T06:01:17.740Z,100979.34
2018-10-05T06:03:45.817Z,100987.73
2018-10-05T06:06:13.911Z,100986.37
2018-10-05T06:08:41.987Z,100988.66
2018-10-05T06:11:10.080Z,100995.38
2018-10-05T06:13:38.153Z,100996.27
2018-10-05T06:16:06.329Z,100997.90
2018-10-05T06:18:34.320Z,101000.14
2018-10-05T06:21:02.413Z,100998.53
2018-10-05T06:23:30.520Z,101004.03
2018-10-05T06:25:58.607Z,101002.68
2018-10-05T06:28:26.755Z,100995.81
2018-10-05T06:30:54.925Z,100994.46
2018-10-05T06:33:23.200Z,100996.58
2018-10-05T06:35:51.218Z,100989.64
2018-10-05T06:38:19.324Z,100994.86
2018-10-05T06:40:47.410Z,100995.74
2018-10-05T06:43:15.527Z,100988.02
2018-10-05T06:45:43.612Z,100993.23
2018-10-05T06:48:11.719Z,100987.47
2018-10-05T06:50:39.824Z,100994.11
2018-10-05T06:53:07.938Z,100997.58
2018-10-05T06:55:36.021Z,101000.83
2018-10-05T06:58:04.120Z,101001.48
2018-10-05T07:00:32.208Z,101011.25
2018-10-05T07:03:00.311Z,101006.41
2018-10-05T07:05:28.411Z,101008.45
2018-10-05T07:07:56.526Z,101005.03
2018-10-05T07:10:24.606Z,100999.02
2018-10-05T07:12:52.711Z,101001.34
2018-10-05T07:15:20.796Z,100999.26
2018-10-05T07:17:48.916Z,101000.30
2018-10-05T07:20:17.016Z,100990.37
2018-10-05T07:22:45.234Z,100992.16
2018-10-05T07:25:13.334Z,100993.14
2018-10-05T07:27:41.410Z,100989.22
2018-10-05T07:30:09.643Z,100993.11
2018-10-05T07:32:37.726Z,100989.41
2018-10-05T07:35:05.823Z,100989.55
2018-10-05T07:37:33.913Z,100982.50
2018-10-05T07:40:02.061Z,100986.23
2018-10-05T07:42:30.196Z,100988.19
2018-10-05T07:44:58.383Z,100983.17
2018-10-05T07:47:26.468Z,100980.31
2018-10-05T07:49:54.567Z,100973.03
2018-10-05T07:52:22.661Z,100972.66
2018-10-05T07:54:50.760Z,100977.41
2018-10-05T07:57:18.856Z,100970.82
2018-10-05T07:59:46.943Z,100968.44
2018-10-05T08:02:15.027Z,100963.06
2018-10-05T08:04:43.129Z,100957.28
2018-10-05T08:07:11.289Z,100959.37
2018-10-05T08:09:39.402Z,100962.38
2018-10-05T08:12:07.405Z,100956.64
2018-10-05T08:14:35.483Z,100962.16
2018-10-05T08:17:03.550Z,100961.41
2018-10-05T08:19:31.631Z,100953.80
2018-10-05T08:21:59.705Z,100950.14
2018-10-05T08:24:27.784Z,100935.67
2018-10-05T08:26:56.307Z,100937.66
2018-10-05T08:29:24.403Z,100932.97
2018-10-05T08:31:52.415Z,100927.16
2018-10-05T08:34:20.490Z,100917.98
2018-10-05T08:36:48.567Z,100919.35
2018-10-05T08:39:16.670Z,100915.03
2018-10-05T08:41:44.762Z,100909.34
2018-10-05T08:44:12.835Z,100901.97
2018-10-05T08:46:40.917Z,100894.77
2018-10-05T08:49:08.989Z,100885.25
2018-10-05T08:51:37.128Z,100878.98
2018-10-05T08:54:05.160Z,100876.17
2018-10-05T08:56:33.237Z,100871.15
2018-10-05T08:59:01.310Z,100863.28
2018-10-05T09:01:29.380Z,100860.37
2018-10-05T09:03:57.452Z,100872.55
2018-10-05T09:06:25.533Z,100861.67
2018-10-05T09:08:53.678Z,100863.86
2018-10-05T09:11:21.791Z,100861.03
2018-10-05T09:13:49.836Z,100862.14
2018-10-05T09:16:17.910Z,100853.17
2018-10-05T09:18:45.983Z,100853.66
2018-10-05T09:21:14.058Z,100843.50
2018-10-05T09:23:42.123Z,100837.91
2018-10-05T09:26:10.202Z,100825.28
2018-10-05T09:28:38.476Z,100826.03
2018-10-05T09:31:06.570Z,100829.30
2018-10-05T09:33:34.639Z,100822.98
2018-10-05T09:36:02.703Z,100817.17
2018-10-05T09:38:30.777Z,100814.62
2018-10-05T09:40:58.845Z,100820.48
2018-10-05T09:43:27.124Z,100803.44
2018-10-05T09:45:55.187Z,100805.09
2018-10-05T09:48:23.270Z,100795.64
2018-10-05T09:50:51.341Z,100796.45
2018-10-05T09:53:19.422Z,100783.93
2018-10-05T09:55:47.483Z,100784.38
2018-10-05T09:58:15.583Z,100780.36
2018-10-05T10:00:48.979Z,100777.59
2018-10-05T10:03:22.405Z,100770.14
2018-10-05T10:05:50.461Z,100765.89
2018-10-05T10:08:18.566Z,100760.22
2018-10-05T10:10:46.602Z,100753.00
2018-10-05T10:13:14.687Z,100736.72
2018-10-05T10:15:42.748Z,100744.41
2018-10-05T10:18:10.828Z,100740.95
2018-10-05T10:20:38.890Z,100744.03
2018-10-05T10:23:06.976Z,100744.52
2018-10-05T10:25:35.055Z,100735.47
2018-10-05T10:28:03.145Z,100747.22
2018-10-05T10:30:31.191Z,100743.15
2018-10-05T10:32:59.258Z,100735.17
2018-10-05T10:35:27.346Z,100723.03
2018-10-05T10:37:55.504Z,100726.14
2018-10-05T10:40:23.583Z,100716.27
2018-10-05T10:42:51.694Z,100709.84
2018-10-05T10:45:19.765Z,100701.37
2018-10-05T10:47:47.854Z,100703.53
2018-10-05T10:50:15.958Z,100692.30
2018-10-05T10:52:44.032Z,100690.44
2018-10-05T10:55:12.170Z,100689.45
2018-10-05T10:57:40.186Z,100678.70
2018-10-05T11:00:08.262Z,100671.07
2018-10-05T11:02:36.328Z,100669.98
2018-10-05T11:05:04.567Z,100671.81
2018-10-05T11:07:32.510Z,100671.81
2018-10-05T11:10:00.591Z,100661.36
2018-10-05T11:12:28.655Z,100664.20
2018-10-05T11:14:56.726Z,100658.34
2018-10-05T11:17:24.796Z,100650.28
2018-10-05T11:19:52.875Z,100645.47
2018-10-05T11:22:20.941Z,100642.03
2018-10-05T11:24:49.018Z,100634.94
2018-10-05T11:27:17.085Z,100632.53
2018-10-05T11:29:45.195Z,100624.55
2018-10-05T11:32:13.238Z,100620.23
2018-10-05T11:34:41.341Z,100614.56
2018-10-05T11:37:09.382Z,100608.20
2018-10-05T11:39:37.451Z,100596.46
2018-10-05T11:42:05.588Z,100582.75
2018-10-05T11:44:33.653Z,100591.54
2018-10-05T11:47:01.740Z,100585.59
2018-10-05T11:49:29.818Z,100579.82
2018-10-05T11:51:57.911Z,100581.42
2018-10-05T11:54:26.029Z,100571.81
2018-10-05T11:56:54.065Z,100563.25
2018-10-05T11:59:22.133Z,100559.24
2018-10-05T12:01:50.313Z,100548.92
2018-10-05T12:04:18.383Z,100541.75
2018-10-05T12:06:46.466Z,100538.66
2018-10-05T12:09:14.535Z,100544.19
2018-10-05T12:11:42.609Z,100538.21
2018-10-05T12:14:10.679Z,100538.64
2018-10-05T12:16:38.763Z,100532.00
2018-10-05T12:19:06.831Z,100534.30
2018-10-05T12:21:34.910Z,100523.31
2018-10-05T12:24:02.999Z,100524.45
2018-10-05T12:26:31.140Z,100518.37
2018-10-05T12:28:59.310Z,100511.52
2018-10-05T12:31:27.399Z,100510.63
2018-10-05T12:33:55.484Z,100508.88
2018-10-05T12:36:23.551Z,100499.38
2018-10-05T12:38:51.634Z,100499.01
2018-10-05T12:41:19.696Z,100483.76
2018-10-05T12:43:47.771Z,100470.89
2018-10-05T12:46:15.846Z,100471.36
2018-10-05T12:48:43.922Z,100478.24
2018-10-05T12:51:11.992Z,100466.97
2018-10-05T12:53:40.068Z,100455.09
2018-10-05T12:56:08.135Z,100461.21
2018-10-05T12:58:36.213Z,100456.94
2018-10-05T13:01:04.284Z,100448.44
2018-10-05T13:03:32.367Z,100449.78
2018-10-05T13:06:00.443Z,100456.57
2018-10-05T13:08:28.516Z,100452.04
2018-10-05T13:10:56.583Z,100446.25
2018-10-05T13:13:24.664Z,100439.63
2018-10-05T13:15:52.736Z,100442.93
2018-10-05T13:18:20.820Z,100443.89
2018-10-05T13:20:48.888Z,100434.80
2018-10-05T13:23:16.969Z,100428.50
2018-10-05T13:25:45.037Z,100425.36
2018-10-05T13:28:13.126Z,100426.08
2018-10-05T13:30:41.187Z,100425.73
2018-10-05T13:33:09.371Z,100415.06
2018-10-05T13:35:37.434Z,100410.55
2018-10-05T13:38:05.674Z,100406.55
2018-10-05T13:40:33.749Z,100410.42
2018-10-05T13:43:01.815Z,100403.62
2018-10-05T13:45:29.900Z,100397.34
2018-10-05T13:47:57.968Z,100392.10
2018-10-05T13:50:26.042Z,100387.21
2018-10-05T13:52:54.141Z,100381.03
2018-10-05T13:55:22.229Z,100383.66
2018-10-05T13:57:50.297Z,100381.41
2018-10-05T14:00:18.375Z,100380.41
2018-10-05T14:02:46.452Z,100367.00
2018-10-05T14:05:14.781Z,100360.05
2018-10-05T14:07:42.817Z,100357.40
2018-10-05T14:10:10.899Z,100352.89
2018-10-05T14:12:39.200Z,100357.21
2018-10-05T14:15:07.425Z,100355.46
2018-10-05T14:17:35.445Z,100357.21
2018-10-05T14:20:03.539Z,100360.45
2018-10-05T14:22:31.619Z,100354.19
2018-10-05T14:24:59.694Z,100345.84
2018-10-05T14:27:27.765Z,100348.05
2018-10-05T14:29:55.839Z,100338.41
2018-10-05T14:32:23.900Z,100351.16
2018-10-05T14:34:51.988Z,100342.52
2018-10-05T14:37:20.060Z,100339.13
2018-10-05T14:39:48.174Z,100339.83
2018-10-05T14:42:16.260Z,100344.70
2018-10-05T14:44:44.383Z,100332.30
2018-10-05T14:47:12.469Z,100325.41
2018-10-05T14:49:40.594Z,100323.42
2018-10-05T14:52:08.653Z,100317.14
2018-10-05T14:54:36.724Z,100305.67
2018-10-05T14:57:04.869Z,100307.69
2018-10-05T14:59:32.918Z,100302.31
2018-10-05T15:02:01.000Z,100301.57
2018-10-05T15:04:29.066Z,100298.98
2018-10-05T15:06:57.182Z,100301.87
2018-10-05T15:09:25.213Z,100296.12
2018-10-05T15:11:53.504Z,100297.61
2018-10-05T15:14:21.575Z,100299.89
2018-10-05T15:16:49.649Z,100301.91
2018-10-05T15:19:17.732Z,100303.58
2018-10-05T15:21:45.800Z,100304.22
2018-10-05T15:24:14.356Z,100304.14
2018-10-05T15:26:42.445Z,100305.42
2018-10-05T15:29:10.501Z,100301.69
2018-10-05T15:31:38.615Z,100304.70
2018-10-05T15:34:06.807Z,100302.72
2018-10-05T15:36:34.886Z,100303.89
2018-10-05T15:39:02.966Z,100296.52
2018-10-05T15:41:31.029Z,100297.32
2018-10-05T15:43:59.106Z,100300.97
2018-10-05T15:46:59.282Z,100293.27
2018-10-05T15:49:27.865Z,100286.51
2018-10-05T15:51:55.947Z,100283.44
2018-10-05T15:54:24.011Z,100285.05
2018-10-05T15:56:52.334Z,100283.98
2018-10-05T15:59:20.521Z,100284.41
2018-10-05T16:01:48.582Z,100288.71
2018-10-05T16:04:16.973Z,100281.97
2018-10-05T16:06:45.239Z,100285.76
2018-10-05T16:09:13.336Z,100277.92
2018-10-05T16:11:41.398Z,100268.84
2018-10-05T16:14:09.479Z,100270.16
2018-10-05T16:16:37.573Z,100271.23
2018-10-05T16:19:06.437Z,100273.25
2018-10-05T16:21:35.418Z,100277.14
2018-10-05T16:24:05.855Z,100272.28
2018-10-05T16:26:33.926Z,100268.66
2018-10-05T16:29:02.035Z,100266.34
2018-10-05T16:31:30.138Z,100260.96
2018-10-05T16:33:58.213Z,100268.69
2018-10-05T16:36:26.354Z,100268.72
2018-10-05T16:38:54.434Z,100274.83
2018-10-05T16:41:22.767Z,100269.47
2018-10-05T16:43:50.922Z,100270.80
2018-10-05T16:46:18.919Z,100268.03
2018-10-05T16:48:46.994Z,100267.51
2018-10-05T16:51:15.090Z,100275.47
2018-10-05T16:53:43.162Z,100272.95
2018-10-05T16:56:11.237Z,100277.30
2018-10-05T16:58:39.315Z,100276.25
2018-10-05T17:01:07.412Z,100270.49
2018-10-05T17:03:35.478Z,100273.20
2018-10-05T17:06:03.553Z,100270.19
2018-10-05T17:08:33.713Z,100275.23
2018-10-05T17:11:01.968Z,100279.41
2018-10-05T17:13:29.863Z,100274.51
2018-10-05T17:15:57.927Z,100279.69
2018-10-05T17:18:25.997Z,100284.87
2018-10-05T17:20:54.066Z,100289.94
2018-10-05T17:23:22.153Z,100280.16
2018-10-05T17:25:50.217Z,100281.61
2018-10-05T17:28:18.296Z,100286.17
2018-10-05T17:30:46.372Z,100284.78
2018-10-05T17:33:14.436Z,100285.59
2018-10-05T17:35:42.652Z,100272.64
2018-10-05T17:38:10.582Z,100272.08
2018-10-05T17:40:38.664Z,100281.03
2018-10-05T17:43:06.742Z,100273.27
2018-10-05T17:45:34.823Z,100283.16
2018-10-05T17:48:02.892Z,100277.13
2018-10-05T17:50:30.970Z,100281.16
2018-10-05T17:52:59.038Z,100281.50
2018-10-05T17:55:27.211Z,100280.20
2018-10-05T17:57:55.239Z,100284.61
2018-10-05T18:00:23.327Z,100287.30
2018-10-05T18:02:51.403Z,100291.64
2018-10-05T18:05:19.502Z,100288.34
2018-10-05T18:07:47.573Z,100296.78
2018-10-05T18:10:15.661Z,100292.98
2018-10-05T18:12:43.742Z,100292.34
2018-10-05T18:15:11.830Z,100292.92
2018-10-05T18:17:40.736Z,100290.50
2018-10-05T18:20:08.959Z,100291.61
2018-10-05T18:22:36.995Z,100284.20
2018-10-05T18:25:05.235Z,100287.37
2018-10-05T18:27:33.343Z,100282.59
2018-10-05T18:30:01.434Z,100277.45
2018-10-05T18:32:29.559Z,100279.51
2018-10-05T18:34:57.654Z,100281.01
2018-10-05T18:37:25.762Z,100279.55
2018-10-05T18:39:53.862Z,100279.00
2018-10-05T18:42:21.949Z,100277.58
2018-10-05T18:44:50.055Z,100281.94
2018-10-05T18:47:18.143Z,100284.02
2018-10-05T18:49:46.222Z,100277.22
2018-10-05T18:52:14.296Z,100277.81
2018-10-05T18:54:42.389Z,100278.59
2018-10-05T18:57:13.707Z,100275.40
2018-10-05T18:59:42.103Z,100270.81
2018-10-05T19:02:10.196Z,100267.23
2018-10-05T19:04:38.279Z,100265.41
2018-10-05T19:07:06.515Z,100272.16
2018-10-05T19:09:34.513Z,100268.75
2018-10-05T19:12:02.632Z,100270.30
2018-10-05T19:14:30.705Z,100273.74
2018-10-05T19:16:58.798Z,100273.93
2018-10-05T19:19:26.875Z,100268.30
2018-10-05T19:21:54.961Z,100268.98
2018-10-05T19:24:23.048Z,100267.92
2018-10-05T19:26:51.263Z,100264.91
2018-10-05T19:29:19.322Z,100263.34
2018-10-05T19:31:47.519Z,100270.39
2018-10-05T19:34:15.636Z,100262.30
2018-10-05T19:36:43.750Z,100266.00
2018-10-05T19:39:12.368Z,100271.55
2018-10-05T19:41:41.070Z,100269.03
2018-10-05T19:44:09.649Z,100273.22
2018-10-05T19:46:38.031Z,100271.95
2018-10-05T19:49:06.119Z,100274.28
2018-10-05T19:51:34.206Z,100278.07
2018-10-05T19:54:02.286Z,100274.25
2018-10-05T19:56:30.377Z,100275.80
2018-10-05T19:58:58.481Z,100277.86
2018-10-05T20:01:26.539Z,100281.65
2018-10-05T20:03:54.614Z,100282.23
2018-10-05T20:06:23.087Z,100278.75
2018-10-05T20:08:51.152Z,100277.17
2018-10-05T20:11:19.227Z,100276.02
2018-10-05T20:13:47.296Z,100279.80
2018-10-05T20:16:15.536Z,100279.02
2018-10-05T20:18:43.565Z,100277.66
2018-10-05T20:21:11.688Z,100282.92
2018-10-05T20:23:40.025Z,100276.07
2018-10-05T20:26:08.154Z,100284.95
2018-10-05T20:28:36.231Z,100283.36
2018-10-05T20:31:04.559Z,100280.36
2018-10-05T20:33:32.658Z,100275.88
2018-10-05T20:36:00.810Z,100280.36
2018-10-05T20:38:28.842Z,100285.50
2018-10-05T20:40:56.939Z,100286.55
2018-10-05T20:43:25.012Z,100288.48
2018-10-05T20:45:53.084Z,100289.00
2018-10-05T20:48:21.156Z,100283.33
2018-10-05T20:50:49.218Z,100279.91
2018-10-05T20:53:17.298Z,100281.47
2018-10-05T20:55:45.382Z,100284.85
2018-10-05T20:58:13.483Z,100279.12
2018-10-05T21:00:41.551Z,100280.48
2018-10-05T21:03:09.634Z,100277.45
2018-10-05T21:05:37.713Z,100278.03
2018-10-05T21:08:06.105Z,100279.59
2018-10-05T21:10:34.165Z,100278.80
2018-10-05T21:13:02.760Z,100276.25
2018-10-05T21:15:30.849Z,100277.21
2018-10-05T21:17:58.978Z,100271.01
2018-10-05T21:20:26.998Z,100278.30
2018-10-05T21:22:55.070Z,100274.78
2018-10-05T21:25:23.137Z,100276.80
2018-10-05T21:27:51.220Z,100271.95
2018-10-05T21:30:19.281Z,100269.23
2018-10-05T21:32:47.432Z,100270.76
2018-10-05T21:35:15.415Z,100264.91
2018-10-05T21:37:43.500Z,100264.52
2018-10-05T21:40:11.566Z,100263.72
2018-10-05T21:42:39.648Z,100260.23
2018-10-05T21:45:07.829Z,100260.33
2018-10-05T21:47:35.815Z,100257.73
2018-10-05T21:50:03.917Z,100255.10
2018-10-05T21:52:32.048Z,100253.94
2018-10-05T21:55:00.291Z,100251.78
2018-10-05T21:57:28.352Z,100250.11
2018-10-05T21:59:56.428Z,100250.23
2018-10-05T22:02:28.045Z,100249.03
2018-10-05T22:04:56.128Z,100246.88
2018-10-05T22:07:24.205Z,100246.20
2018-10-05T22:09:52.283Z,100251.33
2018-10-05T22:12:20.352Z,100247.02
2018-10-05T22:14:48.435Z,100250.81
2018-10-05T22:17:16.511Z,100254.98
2018-10-05T22:19:44.619Z,100248.75
2018-10-05T22:22:12.671Z,100255.23
2018-10-05T22:24:40.773Z,100254.39
2018-10-05T22:27:09.444Z,100251.35
2018-10-05T22:29:37.789Z,100248.31
2018-10-05T22:32:06.146Z,100245.20
2018-10-05T22:34:34.229Z,100245.39
2018-10-05T22:37:02.390Z,100240.99
2018-10-05T22:39:30.477Z,100242.44
2018-10-05T22:41:59.053Z,100241.64
2018-10-05T22:44:27.131Z,100237.76
2018-10-05T22:46:55.400Z,100232.40
2018-10-05T22:49:23.484Z,100232.56
2018-10-05T22:51:51.557Z,100233.23
2018-10-05T22:54:19.635Z,100234.03
2018-10-05T22:56:47.709Z,100235.24
2018-10-05T22:59:15.815Z,100232.72
2018-10-05T23:01:43.891Z,100236.00
2018-10-05T23:04:12.056Z,100243.27
2018-10-05T23:06:40.143Z,100238.40
2018-10-05T23:09:08.677Z,100240.31
2018-10-05T23:11:37.156Z,100241.80
2018-10-05T23:14:05.337Z,100236.52
2018-10-05T23:16:33.516Z,100233.47
2018-10-05T23:19:01.654Z,100231.83
2018-10-05T23:21:29.735Z,100231.51
2018-10-05T23:23:57.801Z,100234.78
2018-10-05T23:26:25.872Z,100232.15
2018-10-05T23:28:53.947Z,100232.27
2018-10-05T23:31:22.120Z,100236.02
2018-10-05T23:33:50.182Z,100240.58
2018-10-05T23:36:18.258Z,100238.02
2018-10-05T23:38:46.327Z,100233.94
2018-10-05T23:41:14.420Z,100223.30
2018-10-05T23:43:42.492Z,100226.05
2018-10-05T23:46:10.569Z,100229.20
2018-10-05T23:48:38.639Z,100227.20
2018-10-05T23:51:06.727Z,100229.55
2018-10-05T23:53:34.959Z,100228.74
2018-10-05T23:56:03.037Z,100230.10
2018-10-05T23:58:31.112Z,100232.81
